sensor_id;sensor_type;location;lat;lon;timestamp;P1;durP1;ratioP1;P2;durP2;ratioP2
22677;SDS011;26259;50.214;18.620;2023-04-24T00:01:13;60.17;;;36.40;;
22677;SDS011;26259;50.214;18.620;2023-04-24T00:03:40;62.30;;;36.43;;
22677;SDS011;26259;50.214;18.620;2023-04-24T00:06:06;57.30;;;37.93;;
22677;SDS011;26259;50.214;18.620;2023-04-24T00:08:33;58.13;;;35.53;;
22677;SDS011;26259;50.214;18.620;2023-04-24T00:10:59;59.27;;;36.00;;
22677;SDS011;26259;50.214;18.620;2023-04-24T00:13:25;58.17;;;34.47;;
22677;SDS011;26259;50.214;18.620;2023-04-24T00:15:51;55.27;;;34.80;;
22677;SDS011;26259;50.214;18.620;2023-04-24T00:18:16;57.50;;;35.67;;
22677;SDS011;26259;50.214;18.620;2023-04-24T00:20:42;56.63;;;36.10;;
22677;SDS011;26259;50.214;18.620;2023-04-24T00:23:08;54.87;;;34.07;;
22677;SDS011;26259;50.214;18.620;2023-04-24T00:25:34;57.43;;;34.60;;
22677;SDS011;26259;50.214;18.620;2023-04-24T00:27:59;58.70;;;35.00;;
22677;SDS011;26259;50.214;18.620;2023-04-24T00:30:25;60.93;;;34.40;;
22677;SDS011;26259;50.214;18.620;2023-04-24T00:32:51;58.57;;;34.83;;
22677;SDS011;26259;50.214;18.620;2023-04-24T00:35:16;54.97;;;33.83;;
22677;SDS011;26259;50.214;18.620;2023-04-24T00:37:42;55.23;;;34.03;;
22677;SDS011;26259;50.214;18.620;2023-04-24T00:40:07;53.13;;;32.80;;
22677;SDS011;26259;50.214;18.620;2023-04-24T00:42:33;61.53;;;35.47;;
22677;SDS011;26259;50.214;18.620;2023-04-24T00:44:59;63.50;;;40.00;;
22677;SDS011;26259;50.214;18.620;2023-04-24T00:47:26;57.70;;;36.90;;
22677;SDS011;26259;50.214;18.620;2023-04-24T00:49:52;63.90;;;41.43;;
22677;SDS011;26259;50.214;18.620;2023-04-24T00:52:18;62.63;;;38.10;;
22677;SDS011;26259;50.214;18.620;2023-04-24T00:54:44;52.07;;;35.23;;
22677;SDS011;26259;50.214;18.620;2023-04-24T00:57:10;57.97;;;36.97;;
22677;SDS011;26259;50.214;18.620;2023-04-24T00:59:37;59.10;;;36.27;;
22677;SDS011;26259;50.214;18.620;2023-04-24T01:02:04;54.70;;;34.40;;
22677;SDS011;26259;50.214;18.620;2023-04-24T01:04:30;53.40;;;34.57;;
22677;SDS011;26259;50.214;18.620;2023-04-24T01:06:56;52.53;;;32.07;;
22677;SDS011;26259;50.214;18.620;2023-04-24T01:09:23;55.10;;;33.03;;
22677;SDS011;26259;50.214;18.620;2023-04-24T01:11:49;49.13;;;33.17;;
22677;SDS011;26259;50.214;18.620;2023-04-24T01:14:14;59.30;;;34.07;;
22677;SDS011;26259;50.214;18.620;2023-04-24T01:16:40;51.80;;;31.70;;
22677;SDS011;26259;50.214;18.620;2023-04-24T01:19:07;45.27;;;31.47;;
22677;SDS011;26259;50.214;18.620;2023-04-24T01:21:35;49.87;;;31.90;;
22677;SDS011;26259;50.214;18.620;2023-04-24T01:24:02;46.33;;;27.70;;
22677;SDS011;26259;50.214;18.620;2023-04-24T01:26:31;44.97;;;27.60;;
22677;SDS011;26259;50.214;18.620;2023-04-24T01:28:57;46.40;;;28.27;;
22677;SDS011;26259;50.214;18.620;2023-04-24T01:31:23;45.67;;;28.33;;
22677;SDS011;26259;50.214;18.620;2023-04-24T01:33:49;47.20;;;28.23;;
22677;SDS011;26259;50.214;18.620;2023-04-24T01:36:15;43.73;;;26.43;;
22677;SDS011;26259;50.214;18.620;2023-04-24T01:38:41;43.43;;;27.77;;
22677;SDS011;26259;50.214;18.620;2023-04-24T01:41:07;42.57;;;26.30;;
22677;SDS011;26259;50.214;18.620;2023-04-24T01:43:33;36.20;;;25.87;;
22677;SDS011;26259;50.214;18.620;2023-04-24T01:45:58;44.63;;;26.20;;
22677;SDS011;26259;50.214;18.620;2023-04-24T01:48:24;34.50;;;22.73;;
22677;SDS011;26259;50.214;18.620;2023-04-24T01:50:50;35.57;;;23.27;;
22677;SDS011;26259;50.214;18.620;2023-04-24T01:53:15;38.10;;;24.00;;
22677;SDS011;26259;50.214;18.620;2023-04-24T01:55:41;34.33;;;23.33;;
22677;SDS011;26259;50.214;18.620;2023-04-24T01:58:06;35.00;;;22.97;;
22677;SDS011;26259;50.214;18.620;2023-04-24T02:00:32;34.87;;;23.60;;
22677;SDS011;26259;50.214;18.620;2023-04-24T02:02:58;39.53;;;22.27;;
22677;SDS011;26259;50.214;18.620;2023-04-24T02:05:23;35.47;;;21.47;;
22677;SDS011;26259;50.214;18.620;2023-04-24T02:07:49;32.23;;;21.13;;
22677;SDS011;26259;50.214;18.620;2023-04-24T02:10:15;38.13;;;21.53;;
22677;SDS011;26259;50.214;18.620;2023-04-24T02:12:40;34.43;;;21.20;;
22677;SDS011;26259;50.214;18.620;2023-04-24T02:15:06;33.40;;;20.83;;
22677;SDS011;26259;50.214;18.620;2023-04-24T02:17:32;33.27;;;21.40;;
22677;SDS011;26259;50.214;18.620;2023-04-24T02:19:57;34.33;;;21.70;;
22677;SDS011;26259;50.214;18.620;2023-04-24T02:22:23;35.87;;;21.00;;
22677;SDS011;26259;50.214;18.620;2023-04-24T02:24:48;35.80;;;23.80;;
22677;SDS011;26259;50.214;18.620;2023-04-24T02:27:14;33.03;;;20.40;;
22677;SDS011;26259;50.214;18.620;2023-04-24T02:29:40;34.70;;;20.63;;
22677;SDS011;26259;50.214;18.620;2023-04-24T02:32:05;31.60;;;19.70;;
22677;SDS011;26259;50.214;18.620;2023-04-24T02:34:31;44.43;;;25.97;;
22677;SDS011;26259;50.214;18.620;2023-04-24T02:36:57;36.33;;;22.27;;
22677;SDS011;26259;50.214;18.620;2023-04-24T02:39:22;39.00;;;22.83;;
22677;SDS011;26259;50.214;18.620;2023-04-24T02:41:48;36.33;;;21.87;;
22677;SDS011;26259;50.214;18.620;2023-04-24T02:44:13;39.00;;;22.53;;
22677;SDS011;26259;50.214;18.620;2023-04-24T02:46:39;36.70;;;22.57;;
22677;SDS011;26259;50.214;18.620;2023-04-24T02:49:06;42.17;;;25.10;;
22677;SDS011;26259;50.214;18.620;2023-04-24T02:51:31;37.10;;;21.60;;
22677;SDS011;26259;50.214;18.620;2023-04-24T02:53:57;36.47;;;22.47;;
22677;SDS011;26259;50.214;18.620;2023-04-24T02:56:22;35.53;;;22.87;;
22677;SDS011;26259;50.214;18.620;2023-04-24T02:58:48;41.27;;;22.57;;
22677;SDS011;26259;50.214;18.620;2023-04-24T03:01:13;36.23;;;20.60;;
22677;SDS011;26259;50.214;18.620;2023-04-24T03:03:39;31.30;;;19.33;;
22677;SDS011;26259;50.214;18.620;2023-04-24T03:06:05;27.90;;;18.80;;
22677;SDS011;26259;50.214;18.620;2023-04-24T03:08:32;34.30;;;20.83;;
22677;SDS011;26259;50.214;18.620;2023-04-24T03:10:58;32.90;;;19.50;;
22677;SDS011;26259;50.214;18.620;2023-04-24T03:13:24;33.47;;;19.83;;
22677;SDS011;26259;50.214;18.620;2023-04-24T03:15:50;29.80;;;18.90;;
22677;SDS011;26259;50.214;18.620;2023-04-24T03:18:15;28.63;;;18.57;;
22677;SDS011;26259;50.214;18.620;2023-04-24T03:20:41;26.70;;;17.40;;
22677;SDS011;26259;50.214;18.620;2023-04-24T03:23:06;26.47;;;17.83;;
22677;SDS011;26259;50.214;18.620;2023-04-24T03:25:32;31.07;;;18.43;;
22677;SDS011;26259;50.214;18.620;2023-04-24T03:27:57;28.40;;;17.83;;
22677;SDS011;26259;50.214;18.620;2023-04-24T03:30:23;27.67;;;17.63;;
22677;SDS011;26259;50.214;18.620;2023-04-24T03:32:49;28.63;;;17.53;;
22677;SDS011;26259;50.214;18.620;2023-04-24T03:35:14;23.87;;;17.23;;
22677;SDS011;26259;50.214;18.620;2023-04-24T03:37:40;35.40;;;19.83;;
22677;SDS011;26259;50.214;18.620;2023-04-24T03:40:06;58.57;;;27.03;;
22677;SDS011;26259;50.214;18.620;2023-04-24T03:42:33;66.97;;;28.67;;
22677;SDS011;26259;50.214;18.620;2023-04-24T03:44:58;71.57;;;30.77;;
22677;SDS011;26259;50.214;18.620;2023-04-24T03:47:24;111.57;;;40.87;;
22677;SDS011;26259;50.214;18.620;2023-04-24T03:49:49;100.57;;;38.87;;
22677;SDS011;26259;50.214;18.620;2023-04-24T03:52:15;75.83;;;32.17;;
22677;SDS011;26259;50.214;18.620;2023-04-24T03:54:40;118.30;;;45.93;;
22677;SDS011;26259;50.214;18.620;2023-04-24T03:57:06;114.03;;;44.70;;
22677;SDS011;26259;50.214;18.620;2023-04-24T03:59:32;140.27;;;54.83;;
22677;SDS011;26259;50.214;18.620;2023-04-24T04:01:57;116.07;;;45.70;;
22677;SDS011;26259;50.214;18.620;2023-04-24T04:04:23;125.77;;;51.43;;
22677;SDS011;26259;50.214;18.620;2023-04-24T04:06:48;126.03;;;49.07;;
22677;SDS011;26259;50.214;18.620;2023-04-24T04:09:14;107.93;;;44.00;;
22677;SDS011;26259;50.214;18.620;2023-04-24T04:11:40;94.13;;;39.77;;
22677;SDS011;26259;50.214;18.620;2023-04-24T04:14:05;78.37;;;33.00;;
22677;SDS011;26259;50.214;18.620;2023-04-24T04:16:31;63.50;;;27.23;;
22677;SDS011;26259;50.214;18.620;2023-04-24T04:18:57;68.60;;;30.97;;
22677;SDS011;26259;50.214;18.620;2023-04-24T04:21:22;67.80;;;29.70;;
22677;SDS011;26259;50.214;18.620;2023-04-24T04:23:48;107.57;;;43.60;;
22677;SDS011;26259;50.214;18.620;2023-04-24T04:26:13;60.97;;;29.07;;
22677;SDS011;26259;50.214;18.620;2023-04-24T04:28:39;68.00;;;30.53;;
22677;SDS011;26259;50.214;18.620;2023-04-24T04:31:05;63.47;;;30.93;;
22677;SDS011;26259;50.214;18.620;2023-04-24T04:33:32;65.17;;;31.13;;
22677;SDS011;26259;50.214;18.620;2023-04-24T04:35:58;58.67;;;27.33;;
22677;SDS011;26259;50.214;18.620;2023-04-24T04:38:25;52.80;;;26.10;;
22677;SDS011;26259;50.214;18.620;2023-04-24T04:40:54;49.30;;;25.63;;
22677;SDS011;26259;50.214;18.620;2023-04-24T04:43:22;54.73;;;25.77;;
22677;SDS011;26259;50.214;18.620;2023-04-24T04:45:49;47.20;;;25.50;;
22677;SDS011;26259;50.214;18.620;2023-04-24T04:48:16;63.27;;;27.67;;
22677;SDS011;26259;50.214;18.620;2023-04-24T04:50:42;47.97;;;24.73;;
22677;SDS011;26259;50.214;18.620;2023-04-24T04:53:08;45.20;;;24.13;;
22677;SDS011;26259;50.214;18.620;2023-04-24T04:55:33;42.23;;;23.57;;
22677;SDS011;26259;50.214;18.620;2023-04-24T04:57:59;44.43;;;24.73;;
22677;SDS011;26259;50.214;18.620;2023-04-24T05:00:25;41.87;;;23.40;;
22677;SDS011;26259;50.214;18.620;2023-04-24T05:02:52;45.50;;;23.70;;
22677;SDS011;26259;50.214;18.620;2023-04-24T05:05:17;41.67;;;23.27;;
22677;SDS011;26259;50.214;18.620;2023-04-24T05:07:43;45.27;;;24.30;;
22677;SDS011;26259;50.214;18.620;2023-04-24T05:10:09;40.87;;;23.23;;
22677;SDS011;26259;50.214;18.620;2023-04-24T05:12:35;43.33;;;22.43;;
22677;SDS011;26259;50.214;18.620;2023-04-24T05:15:01;44.47;;;25.40;;
22677;SDS011;26259;50.214;18.620;2023-04-24T05:17:28;41.00;;;22.30;;
22677;SDS011;26259;50.214;18.620;2023-04-24T05:19:53;44.63;;;22.93;;
22677;SDS011;26259;50.214;18.620;2023-04-24T05:22:19;33.77;;;19.57;;
22677;SDS011;26259;50.214;18.620;2023-04-24T05:24:46;33.87;;;18.67;;
22677;SDS011;26259;50.214;18.620;2023-04-24T05:27:12;32.03;;;16.67;;
22677;SDS011;26259;50.214;18.620;2023-04-24T05:29:37;30.83;;;16.07;;
22677;SDS011;26259;50.214;18.620;2023-04-24T05:32:03;25.27;;;14.87;;
22677;SDS011;26259;50.214;18.620;2023-04-24T05:34:29;32.93;;;16.03;;
22677;SDS011;26259;50.214;18.620;2023-04-24T05:36:54;31.87;;;17.50;;
22677;SDS011;26259;50.214;18.620;2023-04-24T05:39:20;37.53;;;19.73;;
22677;SDS011;26259;50.214;18.620;2023-04-24T05:41:46;24.00;;;15.03;;
22677;SDS011;26259;50.214;18.620;2023-04-24T05:44:11;29.53;;;16.23;;
22677;SDS011;26259;50.214;18.620;2023-04-24T05:46:37;23.27;;;11.70;;
22677;SDS011;26259;50.214;18.620;2023-04-24T05:49:02;26.40;;;12.60;;
22677;SDS011;26259;50.214;18.620;2023-04-24T05:51:28;29.23;;;11.90;;
22677;SDS011;26259;50.214;18.620;2023-04-24T05:53:54;22.43;;;11.77;;
22677;SDS011;26259;50.214;18.620;2023-04-24T05:56:19;21.53;;;11.43;;
22677;SDS011;26259;50.214;18.620;2023-04-24T05:58:45;30.33;;;11.57;;
22677;SDS011;26259;50.214;18.620;2023-04-24T06:01:11;21.70;;;10.27;;
22677;SDS011;26259;50.214;18.620;2023-04-24T06:03:39;22.07;;;8.83;;
22677;SDS011;26259;50.214;18.620;2023-04-24T06:06:06;13.93;;;7.30;;
22677;SDS011;26259;50.214;18.620;2023-04-24T06:08:32;10.37;;;6.80;;
22677;SDS011;26259;50.214;18.620;2023-04-24T06:10:58;16.93;;;7.43;;
22677;SDS011;26259;50.214;18.620;2023-04-24T06:13:23;12.93;;;6.77;;
22677;SDS011;26259;50.214;18.620;2023-04-24T06:15:49;13.07;;;6.30;;
22677;SDS011;26259;50.214;18.620;2023-04-24T06:18:15;12.30;;;6.03;;
22677;SDS011;26259;50.214;18.620;2023-04-24T06:20:40;10.40;;;5.37;;
22677;SDS011;26259;50.214;18.620;2023-04-24T06:23:06;11.83;;;4.80;;
22677;SDS011;26259;50.214;18.620;2023-04-24T06:25:32;13.13;;;5.33;;
22677;SDS011;26259;50.214;18.620;2023-04-24T06:27:57;13.83;;;4.90;;
22677;SDS011;26259;50.214;18.620;2023-04-24T06:30:23;10.73;;;5.40;;
22677;SDS011;26259;50.214;18.620;2023-04-24T06:32:49;9.93;;;4.67;;
22677;SDS011;26259;50.214;18.620;2023-04-24T06:35:14;9.93;;;4.60;;
22677;SDS011;26259;50.214;18.620;2023-04-24T06:37:41;6.83;;;4.87;;
22677;SDS011;26259;50.214;18.620;2023-04-24T06:40:07;11.00;;;5.10;;
22677;SDS011;26259;50.214;18.620;2023-04-24T06:42:33;12.83;;;4.80;;
22677;SDS011;26259;50.214;18.620;2023-04-24T06:45:00;12.33;;;5.40;;
22677;SDS011;26259;50.214;18.620;2023-04-24T06:47:25;13.20;;;6.27;;
22677;SDS011;26259;50.214;18.620;2023-04-24T06:49:51;13.57;;;5.33;;
22677;SDS011;26259;50.214;18.620;2023-04-24T06:52:17;9.43;;;4.90;;
22677;SDS011;26259;50.214;18.620;2023-04-24T06:54:43;8.03;;;4.83;;
22677;SDS011;26259;50.214;18.620;2023-04-24T06:57:09;12.13;;;5.57;;
22677;SDS011;26259;50.214;18.620;2023-04-24T06:59:35;11.90;;;5.13;;
22677;SDS011;26259;50.214;18.620;2023-04-24T07:02:01;10.13;;;6.30;;
22677;SDS011;26259;50.214;18.620;2023-04-24T07:04:26;11.20;;;5.60;;
22677;SDS011;26259;50.214;18.620;2023-04-24T07:06:53;13.10;;;5.53;;
22677;SDS011;26259;50.214;18.620;2023-04-24T07:09:23;10.83;;;5.10;;
22677;SDS011;26259;50.214;18.620;2023-04-24T07:11:50;13.53;;;5.93;;
22677;SDS011;26259;50.214;18.620;2023-04-24T07:14:16;9.40;;;5.40;;
22677;SDS011;26259;50.214;18.620;2023-04-24T07:16:42;11.13;;;4.60;;
22677;SDS011;26259;50.214;18.620;2023-04-24T07:19:08;7.63;;;4.70;;
22677;SDS011;26259;50.214;18.620;2023-04-24T07:21:34;12.87;;;4.50;;
22677;SDS011;26259;50.214;18.620;2023-04-24T07:24:00;7.17;;;4.60;;
22677;SDS011;26259;50.214;18.620;2023-04-24T07:26:26;8.97;;;5.03;;
22677;SDS011;26259;50.214;18.620;2023-04-24T07:28:53;6.37;;;4.93;;
22677;SDS011;26259;50.214;18.620;2023-04-24T07:31:18;20.87;;;4.63;;
22677;SDS011;26259;50.214;18.620;2023-04-24T07:33:44;5.53;;;4.63;;
22677;SDS011;26259;50.214;18.620;2023-04-24T07:36:11;8.27;;;4.37;;
22677;SDS011;26259;50.214;18.620;2023-04-24T07:38:41;4.63;;;3.53;;
22677;SDS011;26259;50.214;18.620;2023-04-24T07:41:07;9.40;;;4.13;;
22677;SDS011;26259;50.214;18.620;2023-04-24T07:43:32;6.23;;;4.17;;
22677;SDS011;26259;50.214;18.620;2023-04-24T07:45:58;8.37;;;4.63;;
22677;SDS011;26259;50.214;18.620;2023-04-24T07:48:24;9.73;;;4.20;;
22677;SDS011;26259;50.214;18.620;2023-04-24T07:50:51;7.23;;;4.17;;
22677;SDS011;26259;50.214;18.620;2023-04-24T07:53:17;9.10;;;4.20;;
22677;SDS011;26259;50.214;18.620;2023-04-24T07:55:42;10.33;;;4.20;;
22677;SDS011;26259;50.214;18.620;2023-04-24T07:58:08;8.83;;;3.83;;
22677;SDS011;26259;50.214;18.620;2023-04-24T08:00:34;13.67;;;4.27;;
22677;SDS011;26259;50.214;18.620;2023-04-24T08:02:59;6.67;;;4.77;;
22677;SDS011;26259;50.214;18.620;2023-04-24T08:05:25;9.13;;;4.10;;
22677;SDS011;26259;50.214;18.620;2023-04-24T08:07:52;36.93;;;5.63;;
22677;SDS011;26259;50.214;18.620;2023-04-24T08:10:17;9.13;;;3.53;;
22677;SDS011;26259;50.214;18.620;2023-04-24T08:12:43;4.80;;;3.50;;
22677;SDS011;26259;50.214;18.620;2023-04-24T08:15:09;9.83;;;3.50;;
22677;SDS011;26259;50.214;18.620;2023-04-24T08:17:35;5.60;;;3.57;;
22677;SDS011;26259;50.214;18.620;2023-04-24T08:20:01;11.50;;;3.73;;
22677;SDS011;26259;50.214;18.620;2023-04-24T08:22:30;7.73;;;3.27;;
22677;SDS011;26259;50.214;18.620;2023-04-24T08:24:56;18.07;;;4.10;;
22677;SDS011;26259;50.214;18.620;2023-04-24T08:27:22;8.93;;;3.27;;
22677;SDS011;26259;50.214;18.620;2023-04-24T08:29:49;10.73;;;3.83;;
22677;SDS011;26259;50.214;18.620;2023-04-24T08:32:14;9.67;;;3.77;;
22677;SDS011;26259;50.214;18.620;2023-04-24T08:34:40;6.33;;;3.90;;
22677;SDS011;26259;50.214;18.620;2023-04-24T08:37:06;8.10;;;3.87;;
22677;SDS011;26259;50.214;18.620;2023-04-24T08:39:31;6.53;;;3.60;;
22677;SDS011;26259;50.214;18.620;2023-04-24T08:41:57;4.50;;;3.03;;
22677;SDS011;26259;50.214;18.620;2023-04-24T08:44:30;6.50;;;3.63;;
22677;SDS011;26259;50.214;18.620;2023-04-24T08:46:57;9.60;;;3.63;;
22677;SDS011;26259;50.214;18.620;2023-04-24T08:49:23;3.53;;;3.17;;
22677;SDS011;26259;50.214;18.620;2023-04-24T08:51:50;5.17;;;3.70;;
22677;SDS011;26259;50.214;18.620;2023-04-24T08:54:18;5.00;;;3.43;;
22677;SDS011;26259;50.214;18.620;2023-04-24T08:56:44;5.67;;;3.20;;
22677;SDS011;26259;50.214;18.620;2023-04-24T08:59:12;8.57;;;3.53;;
22677;SDS011;26259;50.214;18.620;2023-04-24T09:01:39;26.93;;;4.23;;
22677;SDS011;26259;50.214;18.620;2023-04-24T09:04:06;7.80;;;3.23;;
22677;SDS011;26259;50.214;18.620;2023-04-24T09:06:34;7.77;;;3.50;;
22677;SDS011;26259;50.214;18.620;2023-04-24T09:09:00;4.40;;;3.03;;
22677;SDS011;26259;50.214;18.620;2023-04-24T09:11:28;5.97;;;3.37;;
22677;SDS011;26259;50.214;18.620;2023-04-24T09:13:55;4.87;;;3.60;;
22677;SDS011;26259;50.214;18.620;2023-04-24T09:16:21;8.70;;;3.60;;
22677;SDS011;26259;50.214;18.620;2023-04-24T09:18:49;6.30;;;3.37;;
22677;SDS011;26259;50.214;18.620;2023-04-24T09:21:15;6.70;;;2.90;;
22677;SDS011;26259;50.214;18.620;2023-04-24T09:23:40;7.17;;;3.33;;
22677;SDS011;26259;50.214;18.620;2023-04-24T09:26:06;19.40;;;4.03;;
22677;SDS011;26259;50.214;18.620;2023-04-24T09:28:35;6.10;;;3.23;;
22677;SDS011;26259;50.214;18.620;2023-04-24T09:31:12;7.23;;;4.03;;
22677;SDS011;26259;50.214;18.620;2023-04-24T09:33:53;3.20;;;2.90;;
22677;SDS011;26259;50.214;18.620;2023-04-24T09:36:26;7.37;;;3.13;;
22677;SDS011;26259;50.214;18.620;2023-04-24T09:38:57;5.63;;;2.97;;
22677;SDS011;26259;50.214;18.620;2023-04-24T09:41:24;6.50;;;3.07;;
22677;SDS011;26259;50.214;18.620;2023-04-24T09:43:50;6.77;;;3.17;;
22677;SDS011;26259;50.214;18.620;2023-04-24T09:46:15;11.27;;;3.60;;
22677;SDS011;26259;50.214;18.620;2023-04-24T09:48:43;4.43;;;2.90;;
22677;SDS011;26259;50.214;18.620;2023-04-24T09:51:09;8.40;;;3.15;;
22677;SDS011;26259;50.214;18.620;2023-04-24T09:53:37;7.32;;;3.33;;
22677;SDS011;26259;50.214;18.620;2023-04-24T09:56:08;15.40;;;3.50;;
22677;SDS011;26259;50.214;18.620;2023-04-24T09:58:37;6.73;;;3.23;;
22677;SDS011;26259;50.214;18.620;2023-04-24T10:01:04;5.27;;;3.40;;
22677;SDS011;26259;50.214;18.620;2023-04-24T10:03:30;16.23;;;4.50;;
22677;SDS011;26259;50.214;18.620;2023-04-24T10:06:03;4.40;;;3.37;;
22677;SDS011;26259;50.214;18.620;2023-04-24T10:08:34;6.90;;;4.10;;
22677;SDS011;26259;50.214;18.620;2023-04-24T10:11:00;7.80;;;3.47;;
22677;SDS011;26259;50.214;18.620;2023-04-24T10:13:26;6.70;;;4.17;;
22677;SDS011;26259;50.214;18.620;2023-04-24T10:15:53;37.53;;;6.10;;
22677;SDS011;26259;50.214;18.620;2023-04-24T10:18:21;11.53;;;3.63;;
22677;SDS011;26259;50.214;18.620;2023-04-24T10:20:46;6.87;;;3.80;;
22677;SDS011;26259;50.214;18.620;2023-04-24T10:23:12;6.53;;;3.87;;
22677;SDS011;26259;50.214;18.620;2023-04-24T10:25:38;14.13;;;4.70;;
22677;SDS011;26259;50.214;18.620;2023-04-24T10:28:04;10.27;;;4.00;;
22677;SDS011;26259;50.214;18.620;2023-04-24T10:30:31;9.90;;;4.40;;
22677;SDS011;26259;50.214;18.620;2023-04-24T10:33:04;15.10;;;5.47;;
22677;SDS011;26259;50.214;18.620;2023-04-24T10:35:31;10.53;;;4.47;;
22677;SDS011;26259;50.214;18.620;2023-04-24T10:38:05;12.83;;;5.00;;
22677;SDS011;26259;50.214;18.620;2023-04-24T10:40:34;10.33;;;4.30;;
22677;SDS011;26259;50.214;18.620;2023-04-24T10:43:07;6.63;;;4.10;;
22677;SDS011;26259;50.214;18.620;2023-04-24T10:45:36;13.20;;;4.80;;
22677;SDS011;26259;50.214;18.620;2023-04-24T10:48:03;9.60;;;4.87;;
22677;SDS011;26259;50.214;18.620;2023-04-24T10:50:44;11.77;;;4.27;;
22677;SDS011;26259;50.214;18.620;2023-04-24T10:53:26;6.80;;;3.77;;
22677;SDS011;26259;50.214;18.620;2023-04-24T10:58:23;10.57;;;4.40;;
22677;SDS011;26259;50.214;18.620;2023-04-24T11:00:56;21.47;;;5.03;;
22677;SDS011;26259;50.214;18.620;2023-04-24T11:06:06;16.20;;;6.50;;
22677;SDS011;26259;50.214;18.620;2023-04-24T11:08:42;14.17;;;4.60;;
22677;SDS011;26259;50.214;18.620;2023-04-24T11:11:12;10.83;;;5.23;;
22677;SDS011;26259;50.214;18.620;2023-04-24T11:16:26;12.63;;;4.40;;
22677;SDS011;26259;50.214;18.620;2023-04-24T11:21:42;6.00;;;3.97;;
22677;SDS011;26259;50.214;18.620;2023-04-24T11:26:58;4.53;;;3.53;;
22677;SDS011;26259;50.214;18.620;2023-04-24T11:30:16;16.73;;;4.90;;
22677;SDS011;26259;50.214;18.620;2023-04-24T11:35:03;7.43;;;3.83;;
22677;SDS011;26259;50.214;18.620;2023-04-24T11:37:41;5.90;;;3.57;;
22677;SDS011;26259;50.214;18.620;2023-04-24T11:40:09;4.40;;;3.80;;
22677;SDS011;26259;50.214;18.620;2023-04-24T11:42:39;3.67;;;3.30;;
22677;SDS011;26259;50.214;18.620;2023-04-24T11:45:15;7.30;;;3.90;;
22677;SDS011;26259;50.214;18.620;2023-04-24T11:47:43;4.90;;;4.03;;
22677;SDS011;26259;50.214;18.620;2023-04-24T11:50:10;6.77;;;3.90;;
22677;SDS011;26259;50.214;18.620;2023-04-24T11:52:38;6.97;;;3.77;;
22677;SDS011;26259;50.214;18.620;2023-04-24T11:55:12;5.80;;;3.67;;
22677;SDS011;26259;50.214;18.620;2023-04-24T11:57:52;36.53;;;5.63;;
22677;SDS011;26259;50.214;18.620;2023-04-24T12:00:22;13.57;;;4.20;;
22677;SDS011;26259;50.214;18.620;2023-04-24T12:02:49;6.87;;;3.97;;
22677;SDS011;26259;50.214;18.620;2023-04-24T12:05:19;11.73;;;3.77;;
22677;SDS011;26259;50.214;18.620;2023-04-24T12:07:45;8.40;;;3.90;;
22677;SDS011;26259;50.214;18.620;2023-04-24T12:10:11;8.83;;;3.53;;
22677;SDS011;26259;50.214;18.620;2023-04-24T12:12:36;17.50;;;4.07;;
22677;SDS011;26259;50.214;18.620;2023-04-24T12:15:06;7.27;;;3.93;;
22677;SDS011;26259;50.214;18.620;2023-04-24T12:17:33;5.83;;;3.60;;
22677;SDS011;26259;50.214;18.620;2023-04-24T12:20:05;8.80;;;3.60;;
22677;SDS011;26259;50.214;18.620;2023-04-24T12:22:45;6.50;;;3.63;;
22677;SDS011;26259;50.214;18.620;2023-04-24T12:25:22;5.93;;;3.97;;
22677;SDS011;26259;50.214;18.620;2023-04-24T12:27:57;12.27;;;3.60;;
22677;SDS011;26259;50.214;18.620;2023-04-24T12:30:40;7.03;;;4.53;;
22677;SDS011;26259;50.214;18.620;2023-04-24T12:33:09;7.20;;;3.87;;
22677;SDS011;26259;50.214;18.620;2023-04-24T12:35:35;11.53;;;4.57;;
22677;SDS011;26259;50.214;18.620;2023-04-24T12:38:10;5.23;;;4.20;;
22677;SDS011;26259;50.214;18.620;2023-04-24T12:40:38;4.47;;;3.53;;
22677;SDS011;26259;50.214;18.620;2023-04-24T12:43:12;7.57;;;4.00;;
22677;SDS011;26259;50.214;18.620;2023-04-24T12:45:43;11.33;;;4.97;;
22677;SDS011;26259;50.214;18.620;2023-04-24T12:48:12;5.63;;;3.70;;
22677;SDS011;26259;50.214;18.620;2023-04-24T12:50:40;5.13;;;3.57;;
22677;SDS011;26259;50.214;18.620;2023-04-24T12:53:08;5.33;;;3.70;;
22677;SDS011;26259;50.214;18.620;2023-04-24T12:55:34;21.67;;;4.07;;
22677;SDS011;26259;50.214;18.620;2023-04-24T12:57:59;4.73;;;3.60;;
22677;SDS011;26259;50.214;18.620;2023-04-24T13:00:25;21.67;;;4.67;;
22677;SDS011;26259;50.214;18.620;2023-04-24T13:02:51;9.83;;;3.77;;
22677;SDS011;26259;50.214;18.620;2023-04-24T13:05:16;8.00;;;3.67;;
22677;SDS011;26259;50.214;18.620;2023-04-24T13:07:42;4.90;;;4.00;;
22677;SDS011;26259;50.214;18.620;2023-04-24T13:10:08;8.67;;;3.87;;
22677;SDS011;26259;50.214;18.620;2023-04-24T13:12:34;11.03;;;4.00;;
22677;SDS011;26259;50.214;18.620;2023-04-24T13:15:00;4.23;;;3.77;;
22677;SDS011;26259;50.214;18.620;2023-04-24T13:17:25;7.53;;;4.10;;
22677;SDS011;26259;50.214;18.620;2023-04-24T13:19:51;7.97;;;3.20;;
22677;SDS011;26259;50.214;18.620;2023-04-24T13:22:19;9.07;;;5.13;;
22677;SDS011;26259;50.214;18.620;2023-04-24T13:24:45;8.23;;;4.37;;
22677;SDS011;26259;50.214;18.620;2023-04-24T13:27:13;6.47;;;4.83;;
22677;SDS011;26259;50.214;18.620;2023-04-24T13:29:39;7.17;;;4.73;;
22677;SDS011;26259;50.214;18.620;2023-04-24T13:32:05;6.97;;;4.27;;
22677;SDS011;26259;50.214;18.620;2023-04-24T13:34:31;6.53;;;4.23;;
22677;SDS011;26259;50.214;18.620;2023-04-24T13:36:57;6.73;;;4.13;;
22677;SDS011;26259;50.214;18.620;2023-04-24T13:39:23;4.90;;;4.10;;
22677;SDS011;26259;50.214;18.620;2023-04-24T13:41:49;5.27;;;4.10;;
22677;SDS011;26259;50.214;18.620;2023-04-24T13:44:16;5.80;;;4.27;;
22677;SDS011;26259;50.214;18.620;2023-04-24T13:46:42;6.30;;;3.97;;
22677;SDS011;26259;50.214;18.620;2023-04-24T13:49:10;5.13;;;4.27;;
22677;SDS011;26259;50.214;18.620;2023-04-24T13:51:36;14.10;;;4.60;;
22677;SDS011;26259;50.214;18.620;2023-04-24T13:54:02;7.50;;;4.60;;
22677;SDS011;26259;50.214;18.620;2023-04-24T13:56:27;8.03;;;4.27;;
22677;SDS011;26259;50.214;18.620;2023-04-24T13:58:53;8.00;;;4.87;;
22677;SDS011;26259;50.214;18.620;2023-04-24T14:01:21;8.90;;;4.53;;
22677;SDS011;26259;50.214;18.620;2023-04-24T14:03:50;7.07;;;4.23;;
22677;SDS011;26259;50.214;18.620;2023-04-24T14:06:17;6.80;;;4.27;;
22677;SDS011;26259;50.214;18.620;2023-04-24T14:08:47;7.47;;;4.63;;
22677;SDS011;26259;50.214;18.620;2023-04-24T14:11:13;11.93;;;5.20;;
22677;SDS011;26259;50.214;18.620;2023-04-24T14:13:38;10.47;;;6.23;;
22677;SDS011;26259;50.214;18.620;2023-04-24T14:16:06;8.33;;;4.53;;
22677;SDS011;26259;50.214;18.620;2023-04-24T14:18:31;8.97;;;5.07;;
22677;SDS011;26259;50.214;18.620;2023-04-24T14:20:57;6.53;;;4.77;;
22677;SDS011;26259;50.214;18.620;2023-04-24T14:23:23;7.67;;;5.57;;
22677;SDS011;26259;50.214;18.620;2023-04-24T14:25:49;10.77;;;4.83;;
22677;SDS011;26259;50.214;18.620;2023-04-24T14:28:17;8.97;;;5.97;;
22677;SDS011;26259;50.214;18.620;2023-04-24T14:30:43;5.77;;;4.10;;
22677;SDS011;26259;50.214;18.620;2023-04-24T14:33:09;5.77;;;4.20;;
22677;SDS011;26259;50.214;18.620;2023-04-24T14:35:35;10.43;;;4.20;;